D/T METAR WX W/SPE G/SPE TEMP DEWP FEEL
31/01/23 13:20 EGAC 311320Z AUTO 28013KT 240V310 9999 NCD 08/03 Q1020 15.0mph 8°C 3°C 6.7°C
31/01/23 12:50 EGAC 311250Z 28015G28KT 240V320 7000 -RA SCT034 BKN048 08/03 Q1020 -RA 17.3mph 32.2mph 8°C 3°C 6.7°C
31/01/23 07:50 EGAC 310750Z AUTO 28010KT 240V320 9999 FEW037 07/02 Q1019 11.5mph 7°C 2°C 5.4°C
30/01/23 22:20 EGAC 302220Z AUTO 21013KT 9999 OVC012 08/06 Q1020 15.0mph 8°C 6°C 7.6°C
30/01/23 12:50 EGAC 301250Z AUTO 27009KT 240V310 9999 OVC039 08/04 Q1025 10.4mph 8°C 4°C 7.0°C
30/01/23 12:20 EGAC 301220Z AUTO 27009KT 240V300 9999 SCT041 09/03 Q1025 10.4mph 9°C 3°C 7.7°C
30/01/23 11:20 EGAC 301120Z AUTO 27008KT 230V310 9999 NCD 08/03 Q1025 9.2mph 8°C 3°C 6.7°C
30/01/23 10:50 EGAC 301050Z AUTO 26006KT 230V290 9999 NCD 07/03 Q1025 6.9mph 7°C 3°C 5.7°C
30/01/23 08:20 EGAC 300820Z AUTO 21005KT 9999 NCD 04/02 Q1024 5.8mph 4°C 2°C 2.4°C
30/01/23 06:50 EGAC 300650Z AUTO 26006KT 220V300 9999 NCD 06/02 Q1022 6.9mph 6°C 2°C 4.4°C
09/01/23 06:50 EGAC 090650Z AUTO 24010KT 210V270 9999 NCD 05/03 Q0992 11.5mph 5°C 3°C 3.7°C
09/01/23 06:20 EGAC 090620Z AUTO 25008KT 220V280 9999 NCD 06/03 Q0991 9.2mph 6°C 3°C 4.7°C
09/01/23 05:50 EGAC 090550Z AUTO 25007KT 200V290 9999 -RA FEW046 06/02 Q0991 -RA 8.1mph 6°C 2°C 4.4°C
09/01/23 05:20 EGAC 090520Z AUTO 25007KT 200V310 9999 FEW028 SCT034 06/03 Q0990 8.1mph 6°C 3°C 4.7°C
09/01/23 04:50 EGAC 090450Z AUTO 23005KT 160V300 9999 FEW042 05/03 Q0990 5.8mph 5°C 3°C 3.7°C
09/01/23 03:50 EGAC 090350Z AUTO 22008KT 9999 NCD 05/03 Q0988 9.2mph 5°C 3°C 3.7°C
09/01/23 03:20 EGAC 090320Z AUTO 25009KT 210V280 8000 -RADZ FEW027 BKN033 BKN046 06/03 Q0988 -RA -DZ 10.4mph 6°C 3°C 4.7°C
09/01/23 02:20 EGAC 090220Z AUTO 25008KT 220V290 9999 -RADZ FEW033 BKN039 06/03 Q0986 -RA -DZ 9.2mph 6°C 3°C 4.7°C
09/01/23 01:20 EGAC 090120Z AUTO 20009KT 9999 BKN017 OVC023 05/03 Q0985 10.4mph 5°C 3°C 3.7°C
09/01/23 00:50 EGAC 090050Z AUTO 21011KT 9999 BKN024/// BKN028/// BKN032/// //////TCU 05/03 Q0985 12.7mph 5°C 3°C 3.7°C
09/01/23 00:20 EGAC 090020Z AUTO 20012KT 9999 BKN033 BKN040 05/03 Q0984 13.8mph 5°C 3°C 3.7°C
08/01/23 23:50 EGAC 082350Z AUTO 20011KT 9999 BKN026 BKN032 05/03 Q0984 12.7mph 5°C 3°C 3.7°C
08/01/23 23:20 EGAC 082320Z AUTO 21011KT 9999 BKN022 05/03 Q0984 12.7mph 5°C 3°C 3.7°C
08/01/23 22:20 EGAC 082220Z AUTO 18008KT 9999 FEW016 SCT025 BKN033 05/03 Q0983 9.2mph 5°C 3°C 3.7°C
08/01/23 21:50 EGAC 082150Z AUTO 20012KT 9999 FEW016 SCT028 BKN048 06/04 Q0983 13.8mph 6°C 4°C 5.0°C
08/01/23 20:20 EGAC 082020Z AUTO 21011KT 9999 FEW015 BKN045 06/04 Q0982 12.7mph 6°C 4°C 5.0°C
08/01/23 19:20 EGAC 081920Z AUTO 22014KT 9999 FEW026 06/04 Q0981 16.1mph 6°C 4°C 5.0°C
08/01/23 18:50 EGAC 081850Z AUTO 22011KT 9999 FEW015 06/04 Q0981 12.7mph 6°C 4°C 5.0°C
08/01/23 18:20 EGAC 081820Z AUTO 22012KT 9999 FEW014 SCT033 BKN043 06/03 Q0980 13.8mph 6°C 3°C 4.7°C
08/01/23 17:50 EGAC 081750Z AUTO 22011KT 9999 FEW016 BKN037 06/03 Q0980 12.7mph 6°C 3°C 4.7°C
08/01/23 17:20 EGAC 081720Z AUTO 22013KT 9999 FEW018 BKN033 06/03 Q0980 15.0mph 6°C 3°C 4.7°C
08/01/23 16:50 EGAC 081650Z AUTO 22013KT 9999 BKN020 06/03 Q0979 15.0mph 6°C 3°C 4.7°C
08/01/23 16:20 EGAC 081620Z AUTO 22014KT 9999 BKN022 BKN027 OVC032 06/03 Q0979 16.1mph 6°C 3°C 4.7°C
08/01/23 15:50 EGAC 081550Z AUTO 22013KT 9999 -RADZ BKN022 BKN036 06/03 Q0979 -RA -DZ 15.0mph 6°C 3°C 4.7°C
08/01/23 15:20 EGAC 081520Z AUTO 21012KT 9999 -RA FEW023 BKN035 05/03 Q0979 -RA 13.8mph 5°C 3°C 3.7°C
08/01/23 14:20 EGAC 081420Z AUTO 21014KT 9999 -RA FEW025/// BKN034/// //////TCU 06/02 Q0979 -RA 16.1mph 6°C 2°C 4.4°C
08/01/23 13:50 EGAC 081350Z AUTO 21014KT 9999 -RA BKN033 BKN042 05/02 Q0979 -RA 16.1mph 5°C 2°C 3.4°C
08/01/23 13:20 EGAC 081320Z AUTO 21017KT 9999 FEW026/// //////TCU 06/01 Q0979 19.6mph 6°C 1°C 4.1°C
08/01/23 12:20 EGAC 081220Z AUTO 20012KT 9999 NCD 07/01 Q0980 13.8mph 7°C 1°C 5.1°C
08/01/23 11:50 EGAC 081150Z AUTO 21014KT 9999 NCD 06/01 Q0980 16.1mph 6°C 1°C 4.1°C
08/01/23 11:20 EGAC 081120Z AUTO 21014KT 9999 NCD 06/01 Q0980 16.1mph 6°C 1°C 4.1°C
08/01/23 10:50 EGAC 081050Z AUTO 21015KT 9999 NCD 05/01 Q0980 17.3mph 5°C 1°C 3.1°C
08/01/23 10:20 EGAC 081020Z AUTO 22013KT 9999 NCD 05/01 Q0980 15.0mph 5°C 1°C 3.1°C
08/01/23 09:50 EGAC 080950Z AUTO 21014KT 9999 NCD 05/01 Q0980 16.1mph 5°C 1°C 3.1°C
08/01/23 09:20 EGAC 080920Z AUTO 21014KT 9999 NCD 05/01 Q0981 16.1mph 5°C 1°C 3.1°C
08/01/23 08:50 EGAC 080850Z AUTO 20015KT 9999 NCD 05/01 Q0980 17.3mph 5°C 1°C 3.1°C
08/01/23 08:20 EGAC 080820Z AUTO 20016KT 9999 NCD 05/01 Q0980 18.4mph 5°C 1°C 3.1°C
08/01/23 07:50 EGAC 080750Z AUTO 19017KT 9999 NCD 06/01 Q0980 19.6mph 6°C 1°C 4.1°C
08/01/23 07:20 EGAC 080720Z AUTO 20015KT 9999 NCD 06/01 Q0981 17.3mph 6°C 1°C 4.1°C
08/01/23 06:50 EGAC 080650Z AUTO 21011KT 9999 NCD 06/01 Q0981 12.7mph 6°C 1°C 4.1°C
08/01/23 06:20 EGAC 080620Z AUTO 21018KT 9999 NCD 06/01 Q0981 20.7mph 6°C 1°C 4.1°C
08/01/23 05:50 EGAC 080550Z AUTO 21019KT 9999 NCD 07/02 Q0981 21.9mph 7°C 2°C 5.4°C
08/01/23 05:20 EGAC 080520Z AUTO 21014KT 9999 NCD 06/02 Q0981 16.1mph 6°C 2°C 4.4°C
08/01/23 04:50 EGAC 080450Z AUTO 21017KT 9999 NCD 07/02 Q0981 19.6mph 7°C 2°C 5.4°C
08/01/23 04:20 EGAC 080420Z AUTO 21015KT 9999 NCD 06/03 Q0981 17.3mph 6°C 3°C 4.7°C
08/01/23 03:50 EGAC 080350Z AUTO 21015KT 9999 NCD 06/03 Q0982 17.3mph 6°C 3°C 4.7°C
08/01/23 03:20 EGAC 080320Z AUTO 21015KT 9999 SCT029 07/03 Q0982 17.3mph 7°C 3°C 5.7°C
08/01/23 02:50 EGAC 080250Z AUTO 21015KT 9999 FEW025 07/03 Q0982 17.3mph 7°C 3°C 5.7°C
08/01/23 02:20 EGAC 080220Z AUTO 21017KT 9999 FEW025 07/03 Q0982 19.6mph 7°C 3°C 5.7°C
08/01/23 01:50 EGAC 080150Z AUTO 21015KT 9999 FEW028 07/03 Q0982 17.3mph 7°C 3°C 5.7°C
08/01/23 01:20 EGAC 080120Z AUTO 22015KT 9999 SCT027 07/03 Q0981 17.3mph 7°C 3°C 5.7°C
08/01/23 00:20 EGAC 080020Z AUTO 22018KT 9999 SCT027 08/04 Q0981 20.7mph 8°C 4°C 7.0°C
07/01/23 23:50 EGAC 072350Z AUTO 22017G28KT 9999 SCT025 BKN031 08/04 Q0981 19.6mph 32.2mph 8°C 4°C 7.0°C
07/01/23 23:20 EGAC 072320Z AUTO 22019G29KT 9999 SCT029 BKN034 08/04 Q0980 21.9mph 33.4mph 8°C 4°C 7.0°C
07/01/23 22:50 EGAC 072250Z AUTO 22019KT 9999 NCD 08/04 Q0980 21.9mph 8°C 4°C 7.0°C
07/01/23 22:20 EGAC 072220Z AUTO 22019KT 9999 NCD 07/04 Q0980 21.9mph 7°C 4°C 6.0°C
07/01/23 21:50 EGAC 072150Z AUTO 22022KT 9999 FEW034 08/04 Q0979 25.3mph 8°C 4°C 7.0°C
07/01/23 21:20 EGAC 072120Z AUTO 22022KT 9999 FEW036/// //////TCU 08/04 Q0979 25.3mph 8°C 4°C 7.0°C
07/01/23 20:50 EGAC 072050Z AUTO 21021G32KT 9999 FEW036 08/04 Q0979 24.2mph 36.8mph 8°C 4°C 7.0°C
07/01/23 20:20 EGAC 072020Z AUTO 21021KT 9999 NCD 07/04 Q0979 24.2mph 7°C 4°C 6.0°C
07/01/23 19:50 EGAC 071950Z AUTO 21017KT 9999 FEW027 08/03 Q0979 19.6mph 8°C 3°C 6.7°C
07/01/23 19:20 EGAC 071920Z AUTO 21019G29KT 9999 FEW028 SCT034 08/03 Q0979 21.9mph 33.4mph 8°C 3°C 6.7°C
07/01/23 18:50 EGAC 071850Z AUTO 20020KT 9999 FEW029 SCT039 08/03 Q0979 23.0mph 8°C 3°C 6.7°C
07/01/23 18:20 EGAC 071820Z AUTO 20021G33KT 9999 BKN033 08/03 Q0979 24.2mph 38.0mph 8°C 3°C 6.7°C
07/01/23 17:50 EGAC 071750Z AUTO 20021G31KT 9999 OVC033 09/03 Q0979 24.2mph 35.7mph 9°C 3°C 7.7°C
07/01/23 17:20 EGAC 071720Z AUTO 20021KT 9999 OVC036 09/03 Q0979 24.2mph 9°C 3°C 7.7°C
07/01/23 16:50 EGAC 071650Z AUTO 20022G32KT 9999 BKN038 08/02 Q0980 25.3mph 36.8mph 8°C 2°C 6.4°C
07/01/23 16:20 EGAC 071620Z AUTO 19020KT 9999 OVC041 09/02 Q0980 23.0mph 9°C 2°C 7.4°C
07/01/23 15:50 EGAC 071550Z AUTO 19016G27KT 9999 BKN041 08/03 Q0981 18.4mph 31.1mph 8°C 3°C 6.7°C
07/01/23 15:20 EGAC 071520Z AUTO 19017KT 9999 FEW041 08/03 Q0981 19.6mph 8°C 3°C 6.7°C
07/01/23 14:50 EGAC 071450Z AUTO 19016KT 9999 BKN038 08/03 Q0982 18.4mph 8°C 3°C 6.7°C
07/01/23 14:20 EGAC 071420Z AUTO 20017KT 9999 FEW029 09/03 Q0982 19.6mph 9°C 3°C 7.7°C
07/01/23 13:50 EGAC 071350Z AUTO 20017KT 9999 SCT028 09/04 Q0982 19.6mph 9°C 4°C 8.0°C
07/01/23 12:50 EGAC 071250Z AUTO 19016KT 9999 FEW028 BKN032 BKN048 09/06 Q0983 18.4mph 9°C 6°C 8.6°C
07/01/23 11:50 EGAC 071150Z AUTO 18010KT 9999 SCT039 08/04 Q0984 11.5mph 8°C 4°C 7.0°C
07/01/23 11:20 EGAC 071120Z AUTO 19012KT 9999 NCD 08/04 Q0985 13.8mph 8°C 4°C 7.0°C
07/01/23 10:50 EGAC 071050Z AUTO 19013KT 9999 NCD 08/04 Q0986 15.0mph 8°C 4°C 7.0°C
07/01/23 10:20 EGAC 071020Z AUTO 20005KT 170V240 9999 NCD 07/05 Q0986 5.8mph 7°C 5°C 6.3°C
07/01/23 09:50 EGAC 070950Z AUTO 16006KT 9999 FEW022 SCT026 BKN031 07/05 Q0986 6.9mph 7°C 5°C 6.3°C
07/01/23 09:20 EGAC 070920Z AUTO 17006KT 9999 BKN018 07/06 Q0986 6.9mph 7°C 6°C 6.6°C
07/01/23 08:50 EGAC 070850Z AUTO 21005KT 160V250 9999 BKN018 BKN023 OVC040 07/06 Q0987 5.8mph 7°C 6°C 6.6°C
07/01/23 08:20 EGAC 070820Z AUTO 21003KT 180V250 9999 SCT021 SCT028 BKN033 07/06 Q0987 3.5mph 7°C 6°C 6.6°C
07/01/23 07:50 EGAC 070750Z AUTO 20003KT 170V240 9999 FEW034 BKN044 07/06 Q0987 3.5mph 7°C 6°C 6.6°C
07/01/23 07:20 EGAC 070720Z AUTO 22004KT 200V260 9999 SCT006 SCT028 BKN034 07/06 Q0987 4.6mph 7°C 6°C 6.6°C
07/01/23 06:50 EGAC 070650Z AUTO 23003KT 170V280 9999 FEW005 SCT035 07/06 Q0988 3.5mph 7°C 6°C 6.6°C
07/01/23 06:20 EGAC 070620Z AUTO 23004KT 190V260 9999 SCT005 07/06 Q0988 4.6mph 7°C 6°C 6.6°C